createdAt,value
2023-02-19T00:02:41.267Z,3.85
2023-02-19T00:05:27.323Z,3.13
2023-02-19T00:08:13.137Z,2.63
2023-02-19T00:11:08.645Z,2.63
2023-02-19T00:13:57.436Z,3.03
2023-02-19T00:16:44.067Z,3.00
2023-02-19T00:19:30.746Z,3.22
2023-02-19T00:22:16.274Z,2.15
2023-02-19T00:25:01.723Z,2.20
2023-02-19T00:27:47.766Z,1.42
2023-02-19T00:30:33.382Z,2.05
2023-02-19T00:33:18.877Z,2.28
2023-02-19T00:36:06.144Z,1.98
2023-02-19T00:38:52.095Z,2.15
2023-02-19T00:41:37.493Z,2.38
2023-02-19T00:44:23.175Z,1.58
2023-02-19T00:47:09.934Z,2.00
2023-02-19T00:49:58.236Z,2.38
2023-02-19T00:52:43.689Z,1.70
2023-02-19T00:55:29.536Z,1.85
2023-02-19T00:58:14.839Z,2.58
2023-02-19T01:01:00.394Z,2.33
2023-02-19T01:03:46.960Z,2.00
2023-02-19T01:06:32.916Z,2.13
2023-02-19T01:09:18.354Z,2.10
2023-02-19T01:12:05.835Z,2.13
2023-02-19T01:14:51.407Z,1.50
2023-02-19T01:17:37.052Z,1.65
2023-02-19T01:20:22.954Z,1.95
2023-02-19T01:23:08.871Z,1.48
2023-02-19T01:25:54.242Z,1.80
2023-02-19T01:28:40.209Z,1.42
2023-02-19T01:31:26.099Z,2.03
2023-02-19T01:34:12.962Z,2.47
2023-02-19T01:36:58.314Z,1.83
2023-02-19T01:39:43.680Z,2.28
2023-02-19T01:42:29.026Z,2.33
2023-02-19T01:45:31.011Z,1.63
2023-02-19T01:48:33.562Z,1.95
2023-02-19T01:51:20.807Z,1.70
2023-02-19T01:54:09.495Z,2.20
2023-02-19T01:56:56.653Z,1.58
2023-02-19T01:59:43.185Z,1.60
2023-02-19T02:02:29.092Z,2.00
2023-02-19T02:05:25.251Z,1.80
2023-02-19T02:08:31.787Z,1.70
2023-02-19T02:11:17.215Z,1.88
2023-02-19T02:14:04.239Z,2.30
2023-02-19T02:17:05.017Z,2.30
2023-02-19T02:20:12.996Z,2.10
2023-02-19T02:23:07.282Z,1.90
2023-02-19T02:26:16.189Z,1.65
2023-02-19T02:29:40.435Z,2.13
2023-02-19T02:32:33.255Z,1.55
2023-02-19T02:35:23.877Z,2.13
2023-02-19T02:38:12.928Z,1.75
2023-02-19T02:40:59.077Z,2.35
2023-02-19T02:43:45.037Z,1.90
2023-02-19T02:46:35.930Z,1.63
2023-02-19T02:49:24.284Z,1.58
2023-02-19T02:52:31.150Z,1.60
2023-02-19T02:55:17.416Z,1.92
2023-02-19T02:58:03.157Z,1.90
2023-02-19T03:01:13.571Z,1.83
2023-02-19T03:04:05.110Z,1.95
2023-02-19T03:06:51.196Z,1.93
2023-02-19T03:09:42.117Z,2.08
2023-02-19T03:12:50.705Z,2.08
2023-02-19T03:16:01.341Z,1.80
2023-02-19T03:19:08.912Z,2.17
2023-02-19T03:22:03.151Z,2.08
2023-02-19T03:25:22.881Z,1.95
2023-02-19T03:28:11.306Z,2.70
2023-02-19T03:30:57.247Z,2.30
2023-02-19T03:33:45.575Z,1.95
2023-02-19T03:36:37.986Z,3.03
2023-02-19T03:39:24.107Z,2.83
2023-02-19T03:42:30.084Z,2.20
2023-02-19T03:45:33.988Z,2.45
2023-02-19T03:48:37.138Z,2.80
2023-02-19T03:51:39.218Z,1.42
2023-02-19T03:54:38.162Z,2.03
2023-02-19T03:57:31.337Z,2.03
2023-02-19T04:00:23.187Z,2.08
2023-02-19T04:06:11.670Z,2.45
2023-02-19T04:09:01.994Z,2.08
2023-02-19T04:11:50.352Z,2.33
2023-02-19T04:14:46.277Z,1.90
2023-02-19T04:17:37.384Z,2.35
2023-02-19T04:20:26.160Z,2.42
2023-02-19T04:23:13.063Z,2.10
2023-02-19T04:26:01.193Z,2.60
2023-02-19T04:28:47.133Z,2.10
2023-02-19T04:31:35.782Z,1.95
2023-02-19T04:34:21.329Z,1.70
2023-02-19T04:37:07.611Z,1.80
2023-02-19T04:39:53.035Z,1.60
2023-02-19T04:42:38.623Z,1.50
2023-02-19T04:45:24.046Z,1.27
2023-02-19T04:48:09.357Z,1.40
2023-02-19T04:50:55.173Z,1.17
2023-02-19T04:53:40.723Z,1.77
2023-02-19T04:56:26.431Z,1.75
2023-02-19T04:59:12.853Z,1.92
2023-02-19T05:01:58.227Z,1.50
2023-02-19T05:04:43.699Z,2.20
2023-02-19T05:07:28.967Z,1.98
2023-02-19T05:10:14.303Z,1.90
2023-02-19T05:12:59.628Z,1.50
2023-02-19T05:15:54.928Z,1.70
2023-02-19T05:18:41.256Z,1.73
2023-02-19T05:21:27.153Z,2.08
2023-02-19T05:24:12.621Z,1.75
2023-02-19T05:26:57.934Z,2.38
2023-02-19T05:29:43.451Z,3.58
2023-02-19T05:32:28.785Z,5.22
2023-02-19T05:35:14.368Z,4.53
2023-02-19T05:37:59.899Z,4.88
2023-02-19T05:40:46.427Z,3.75
2023-02-19T05:43:31.979Z,3.00
2023-02-19T05:46:20.157Z,4.30
2023-02-19T05:49:05.968Z,4.05
2023-02-19T05:51:51.596Z,2.50
2023-02-19T05:54:37.017Z,2.28
2023-02-19T05:57:22.563Z,4.68
2023-02-19T06:00:13.134Z,9.85
2023-02-19T06:02:58.560Z,6.18
2023-02-19T06:05:43.916Z,4.63
2023-02-19T06:08:29.294Z,5.25
2023-02-19T06:11:14.780Z,6.32
2023-02-19T06:14:00.444Z,5.63
2023-02-19T06:16:46.180Z,3.88
2023-02-19T06:19:31.488Z,3.88
2023-02-19T06:22:18.281Z,5.15
2023-02-19T06:25:06.968Z,4.90
2023-02-19T06:27:53.602Z,3.42
2023-02-19T06:30:39.092Z,2.55
2023-02-19T06:33:26.734Z,2.83
2023-02-19T06:36:15.755Z,2.28
2023-02-19T06:39:03.115Z,2.03
2023-02-19T06:41:50.771Z,3.50
2023-02-19T06:44:37.619Z,4.28
2023-02-19T06:47:25.552Z,4.00
2023-02-19T06:50:12.818Z,2.60
2023-02-19T06:52:59.298Z,2.33
2023-02-19T06:55:59.688Z,2.38
2023-02-19T06:58:47.118Z,2.00
2023-02-19T07:01:34.343Z,1.88
2023-02-19T07:04:20.019Z,1.90
2023-02-19T07:07:05.617Z,2.03
2023-02-19T07:09:51.179Z,1.40
2023-02-19T07:12:36.628Z,2.08
2023-02-19T07:15:21.945Z,2.60
2023-02-19T07:18:10.372Z,1.35
2023-02-19T07:21:01.713Z,1.75
2023-02-19T07:23:47.022Z,2.80
2023-02-19T07:26:32.868Z,2.80
2023-02-19T07:29:18.450Z,5.35
2023-02-19T07:32:04.324Z,3.67
2023-02-19T07:35:03.647Z,3.55
2023-02-19T07:37:49.809Z,3.60
2023-02-19T07:40:35.836Z,3.30
2023-02-19T07:43:22.402Z,4.10
2023-02-19T07:46:10.944Z,4.22
2023-02-19T07:48:56.467Z,5.75
2023-02-19T07:51:43.862Z,4.47
2023-02-19T07:54:29.677Z,3.38
2023-02-19T07:57:15.657Z,5.18
2023-02-19T08:00:02.566Z,2.80
2023-02-19T08:03:00.995Z,2.35
2023-02-19T08:05:46.461Z,2.30
2023-02-19T08:08:32.012Z,3.58
2023-02-19T08:11:37.931Z,3.28
2023-02-19T08:14:27.575Z,5.10
2023-02-19T08:17:13.010Z,2.95
2023-02-19T08:19:58.380Z,7.53
2023-02-19T08:22:43.849Z,7.57
2023-02-19T08:25:29.331Z,4.10
2023-02-19T08:28:14.941Z,2.35
2023-02-19T08:31:06.702Z,2.08
2023-02-19T08:33:53.544Z,1.52
2023-02-19T08:36:40.154Z,1.73
2023-02-19T08:39:25.608Z,2.03
2023-02-19T08:42:10.985Z,2.15
2023-02-19T08:44:56.550Z,6.15
2023-02-19T08:47:41.890Z,8.25
2023-02-19T08:50:27.652Z,9.13
2023-02-19T08:53:12.999Z,6.10
2023-02-19T08:55:58.579Z,12.10
2023-02-19T08:58:44.571Z,8.27
2023-02-19T09:01:30.018Z,8.20
2023-02-19T09:04:15.333Z,13.88
2023-02-19T09:07:01.142Z,6.93
2023-02-19T09:09:46.342Z,9.75
2023-02-19T09:12:33.596Z,6.32
2023-02-19T09:15:19.558Z,5.32
2023-02-19T09:18:05.592Z,4.70
2023-02-19T09:20:50.871Z,6.07
2023-02-19T09:23:37.341Z,7.10
2023-02-19T09:26:23.720Z,5.70
2023-02-19T09:29:10.435Z,9.88
2023-02-19T09:31:58.145Z,5.43
2023-02-19T09:34:44.630Z,6.43
2023-02-19T09:37:29.785Z,6.47
2023-02-19T09:40:21.458Z,5.35
2023-02-19T09:43:11.900Z,2.97
2023-02-19T09:46:10.394Z,4.85
2023-02-19T09:49:03.546Z,3.90
2023-02-19T09:51:53.997Z,2.83
2023-02-19T09:54:41.600Z,5.63
2023-02-19T09:57:30.331Z,4.22
2023-02-19T10:00:25.086Z,4.25
2023-02-19T10:03:19.868Z,6.30
2023-02-19T10:06:11.584Z,5.43
2023-02-19T10:09:09.288Z,7.57
2023-02-19T10:11:56.433Z,7.93
2023-02-19T10:14:48.662Z,9.95
2023-02-19T10:17:35.676Z,5.25
2023-02-19T10:20:26.619Z,5.35
2023-02-19T10:23:15.674Z,4.20
2023-02-19T10:26:01.536Z,3.70
2023-02-19T10:28:47.094Z,8.05
2023-02-19T10:31:33.795Z,10.05
2023-02-19T10:34:22.367Z,6.90
2023-02-19T10:37:15.151Z,6.95
2023-02-19T10:40:01.603Z,5.88
2023-02-19T10:42:49.140Z,4.55
2023-02-19T10:46:12.934Z,5.07
2023-02-19T10:49:01.277Z,4.93
2023-02-19T10:51:47.972Z,7.55
2023-02-19T10:54:35.526Z,8.00
2023-02-19T10:57:30.363Z,8.95
2023-02-19T11:00:15.868Z,6.93
2023-02-19T11:03:24.616Z,5.28
2023-02-19T11:06:13.301Z,6.60
2023-02-19T11:09:01.007Z,5.43
2023-02-19T11:11:52.145Z,3.20
2023-02-19T11:14:38.451Z,2.75
2023-02-19T11:17:33.375Z,3.70
2023-02-19T11:20:19.090Z,2.85
2023-02-19T11:23:14.974Z,5.05
2023-02-19T11:26:04.103Z,4.82
2023-02-19T11:28:58.243Z,2.78
2023-02-19T11:31:44.641Z,2.28
2023-02-19T11:34:30.526Z,4.60
2023-02-19T11:37:18.173Z,2.97
2023-02-19T11:40:04.965Z,2.13
2023-02-19T11:43:03.725Z,2.30
2023-02-19T11:46:46.901Z,3.28
2023-02-19T11:49:47.608Z,2.08
2023-02-19T11:52:41.333Z,2.38
2023-02-19T11:55:46.223Z,2.28
2023-02-19T11:58:40.121Z,2.65
2023-02-19T12:01:31.526Z,2.20
2023-02-19T12:04:28.903Z,3.40
2023-02-19T12:07:36.944Z,2.78
2023-02-19T12:10:45.077Z,2.75
2023-02-19T12:13:54.017Z,2.88
2023-02-19T12:16:52.750Z,3.00
2023-02-19T12:19:56.772Z,2.90
2023-02-19T12:23:06.997Z,3.03
2023-02-19T12:26:27.667Z,2.28
2023-02-19T12:29:58.576Z,3.08
2023-02-19T12:33:18.604Z,3.67
2023-02-19T12:36:13.039Z,3.50
2023-02-19T12:39:19.540Z,2.25
2023-02-19T12:42:26.421Z,2.53
2023-02-19T12:45:17.781Z,2.95
2023-02-19T12:48:17.102Z,3.78
2023-02-19T12:51:09.944Z,3.50
2023-02-19T12:54:02.557Z,4.88
2023-02-19T12:57:14.341Z,2.45
2023-02-19T13:00:42.606Z,4.57
2023-02-19T13:03:37.775Z,7.03
2023-02-19T13:06:50.095Z,5.50
2023-02-19T13:09:50.715Z,3.10
2023-02-19T13:12:44.670Z,2.00
2023-02-19T13:15:42.524Z,1.30
2023-02-19T13:18:36.999Z,2.30
2023-02-19T13:21:44.590Z,1.77
2023-02-19T13:24:41.781Z,1.67
2023-02-19T13:27:42.404Z,2.40
2023-02-19T13:31:06.234Z,1.90
2023-02-19T13:34:14.325Z,1.33
2023-02-19T13:37:01.764Z,1.38
2023-02-19T13:39:59.963Z,1.10
2023-02-19T13:42:54.210Z,1.33
2023-02-19T13:45:39.494Z,1.23
2023-02-19T13:48:34.641Z,1.70
2023-02-19T13:51:23.041Z,2.38
2023-02-19T13:54:23.288Z,1.55
2023-02-19T13:57:18.090Z,1.80
2023-02-19T14:00:42.688Z,2.03
2023-02-19T14:03:47.903Z,1.65
2023-02-19T14:07:02.108Z,2.42
2023-02-19T14:09:48.068Z,2.78
2023-02-19T14:12:40.361Z,1.70
2023-02-19T14:15:50.012Z,2.67
2023-02-19T14:18:42.778Z,2.05
2023-02-19T14:21:37.652Z,3.13
2023-02-19T14:24:25.747Z,2.63
2023-02-19T14:27:11.672Z,3.97
2023-02-19T14:29:57.152Z,2.92
2023-02-19T14:32:45.247Z,3.42
2023-02-19T14:35:39.405Z,4.15
2023-02-19T14:38:33.739Z,3.33
2023-02-19T14:41:23.303Z,2.63
2023-02-19T14:44:24.928Z,1.30
2023-02-19T14:47:16.918Z,1.33
2023-02-19T14:50:06.341Z,1.10
2023-02-19T14:52:57.618Z,3.05
2023-02-19T14:55:46.651Z,2.55
2023-02-19T14:58:33.337Z,2.03
2023-02-19T15:01:27.202Z,1.60
2023-02-19T15:04:23.080Z,2.20
2023-02-19T15:07:14.118Z,3.25
2023-02-19T15:10:05.767Z,2.08
2023-02-19T15:12:54.595Z,4.00
2023-02-19T15:15:45.389Z,3.30
2023-02-19T15:18:35.781Z,2.95
2023-02-19T15:21:24.941Z,4.47
2023-02-19T15:24:13.717Z,3.72
2023-02-19T15:26:59.626Z,3.95
2023-02-19T15:29:48.215Z,3.13
2023-02-19T15:32:34.335Z,4.05
2023-02-19T15:35:22.897Z,3.58
2023-02-19T15:38:12.538Z,3.15
2023-02-19T15:40:58.638Z,3.80
2023-02-19T15:43:54.286Z,3.85
2023-02-19T15:46:42.662Z,5.10
2023-02-19T15:49:39.026Z,4.22
2023-02-19T15:52:38.564Z,4.30
2023-02-19T15:55:55.243Z,2.90
2023-02-19T15:58:47.707Z,3.00
2023-02-19T16:01:37.599Z,4.33
2023-02-19T16:04:24.038Z,3.65
2023-02-19T16:07:31.980Z,4.00
2023-02-19T16:10:24.816Z,4.18
2023-02-19T16:16:15.673Z,3.90
2023-02-19T16:19:01.457Z,4.07
2023-02-19T16:21:46.864Z,5.20
2023-02-19T16:24:41.173Z,4.65
2023-02-19T16:27:38.424Z,4.35
2023-02-19T16:30:30.958Z,4.00
2023-02-19T16:33:46.138Z,3.33
2023-02-19T16:36:41.421Z,5.45
2023-02-19T16:39:27.181Z,4.70
2023-02-19T16:42:14.480Z,3.53
2023-02-19T16:45:00.153Z,5.32
2023-02-19T16:47:48.585Z,4.60
2023-02-19T16:50:34.445Z,3.25
2023-02-19T16:53:22.513Z,2.55
2023-02-19T16:56:15.590Z,2.80
2023-02-19T16:59:01.206Z,2.60
2023-02-19T17:01:46.491Z,3.05
2023-02-19T17:04:32.259Z,3.45
2023-02-19T17:07:18.528Z,2.85
2023-02-19T17:10:04.433Z,4.57
2023-02-19T17:12:51.184Z,4.60
2023-02-19T17:15:36.951Z,4.82
2023-02-19T17:18:22.789Z,5.18
2023-02-19T17:21:21.094Z,5.80
2023-02-19T17:24:07.384Z,7.28
2023-02-19T17:26:53.557Z,6.28
2023-02-19T17:29:39.785Z,7.43
2023-02-19T17:32:25.619Z,4.57
2023-02-19T17:35:11.007Z,5.07
2023-02-19T17:37:56.182Z,5.88
2023-02-19T17:40:41.619Z,5.25
2023-02-19T17:43:27.016Z,4.32
2023-02-19T17:46:17.262Z,6.55
2023-02-19T17:49:03.036Z,5.85
2023-02-19T17:51:48.259Z,7.85
2023-02-19T17:54:34.446Z,7.00
2023-02-19T17:57:19.929Z,8.68
2023-02-19T18:00:07.088Z,9.98
2023-02-19T18:02:58.444Z,9.02
2023-02-19T18:05:43.941Z,6.53
2023-02-19T18:08:29.217Z,6.88
2023-02-19T18:11:14.475Z,6.55
2023-02-19T18:13:59.743Z,5.43
2023-02-19T18:16:50.355Z,4.90
2023-02-19T18:19:36.084Z,4.70
2023-02-19T18:22:21.821Z,5.72
2023-02-19T18:25:08.415Z,4.40
2023-02-19T18:27:54.571Z,5.20
2023-02-19T18:30:40.933Z,5.05
2023-02-19T18:33:26.979Z,6.60
2023-02-19T18:36:13.053Z,5.28
2023-02-19T18:38:58.577Z,6.78
2023-02-19T18:41:51.577Z,5.47
2023-02-19T18:44:37.475Z,5.20
2023-02-19T18:47:27.506Z,5.07
2023-02-19T18:50:13.351Z,4.82
2023-02-19T18:52:59.407Z,5.20
2023-02-19T18:55:46.010Z,5.10
2023-02-19T18:58:32.089Z,4.70
2023-02-19T19:01:18.103Z,4.95
2023-02-19T19:04:03.744Z,4.80
2023-02-19T19:06:49.811Z,7.32
2023-02-19T19:09:37.125Z,7.20
2023-02-19T19:12:22.971Z,6.45
2023-02-19T19:15:08.981Z,5.63
2023-02-19T19:17:54.679Z,4.80
2023-02-19T19:20:40.436Z,6.57
2023-02-19T19:23:25.840Z,5.55
2023-02-19T19:26:12.687Z,5.25
2023-02-19T19:28:58.944Z,5.88
2023-02-19T19:31:45.880Z,5.78
2023-02-19T19:34:31.715Z,5.55
2023-02-19T19:37:17.430Z,7.18
2023-02-19T19:40:03.979Z,6.50
2023-02-19T19:42:51.874Z,6.85
2023-02-19T19:45:38.313Z,5.47
2023-02-19T19:48:27.510Z,6.68
2023-02-19T19:51:14.793Z,7.68
2023-02-19T19:54:02.242Z,8.55
2023-02-19T19:56:49.754Z,7.25
2023-02-19T19:59:36.992Z,7.45
2023-02-19T20:02:24.006Z,7.68
2023-02-19T20:05:10.639Z,7.90
2023-02-19T20:07:56.975Z,6.55
2023-02-19T20:10:44.564Z,7.30
2023-02-19T20:13:32.694Z,8.80
2023-02-19T20:16:24.440Z,9.02
2023-02-19T20:19:10.908Z,9.07
2023-02-19T20:21:56.432Z,9.02
2023-02-19T20:24:42.356Z,7.32
2023-02-19T20:27:27.744Z,7.40
2023-02-19T20:30:14.297Z,6.53
2023-02-19T20:32:59.786Z,6.85
2023-02-19T20:35:45.281Z,8.52
2023-02-19T20:38:30.780Z,7.53
2023-02-19T20:41:16.276Z,6.68
2023-02-19T20:44:01.783Z,6.57
2023-02-19T20:46:50.529Z,7.13
2023-02-19T20:49:36.351Z,5.68
2023-02-19T20:52:21.923Z,11.93
2023-02-19T20:55:09.180Z,12.98
2023-02-19T20:57:54.761Z,10.63
2023-02-19T21:00:40.612Z,8.30
2023-02-19T21:03:26.138Z,6.78
2023-02-19T21:06:12.150Z,5.15
2023-02-19T21:08:57.593Z,6.10
2023-02-19T21:11:43.095Z,5.45
2023-02-19T21:14:28.797Z,7.72
2023-02-19T21:17:14.277Z,6.50
2023-02-19T21:19:59.581Z,7.78
2023-02-19T21:22:45.011Z,8.50
2023-02-19T21:25:33.025Z,6.32
2023-02-19T21:28:19.748Z,8.63
2023-02-19T21:31:05.213Z,6.53
2023-02-19T21:33:50.679Z,10.82
2023-02-19T21:36:36.729Z,17.52
2023-02-19T21:39:24.838Z,10.02
2023-02-19T21:42:10.815Z,8.63
2023-02-19T21:44:56.651Z,10.68
2023-02-19T21:47:43.182Z,10.50
2023-02-19T21:50:28.968Z,9.60
2023-02-19T21:53:15.501Z,10.73
2023-02-19T21:56:00.971Z,14.60
2023-02-19T21:58:46.394Z,13.77
2023-02-19T22:01:35.747Z,12.20
2023-02-19T22:04:22.153Z,10.05
2023-02-19T22:07:07.809Z,8.90
2023-02-19T22:09:53.265Z,8.27
2023-02-19T22:12:38.436Z,7.22
2023-02-19T22:15:23.912Z,8.05
2023-02-19T22:18:09.272Z,9.20
2023-02-19T22:20:54.686Z,6.97
2023-02-19T22:23:43.875Z,6.05
2023-02-19T22:26:35.986Z,8.43
2023-02-19T22:29:21.543Z,6.70
2023-02-19T22:32:07.201Z,6.57
2023-02-19T22:34:52.988Z,6.70
2023-02-19T22:37:38.591Z,7.03
2023-02-19T22:40:23.883Z,5.13
2023-02-19T22:43:09.414Z,7.80
2023-02-19T22:45:55.209Z,6.80
2023-02-19T22:48:40.701Z,8.88
2023-02-19T22:51:26.315Z,9.15
2023-02-19T22:54:11.953Z,7.28
2023-02-19T22:56:57.308Z,6.90
2023-02-19T22:59:42.874Z,9.20
2023-02-19T23:02:28.134Z,9.07
2023-02-19T23:05:14.609Z,7.90
2023-02-19T23:08:00.030Z,7.50
2023-02-19T23:10:45.368Z,7.35
2023-02-19T23:13:31.032Z,7.32
2023-02-19T23:16:16.758Z,5.57
2023-02-19T23:19:07.385Z,7.38
2023-02-19T23:21:53.064Z,6.40
2023-02-19T23:24:38.798Z,5.07
2023-02-19T23:27:24.296Z,6.22
2023-02-19T23:30:09.997Z,5.40
2023-02-19T23:32:55.655Z,5.25
2023-02-19T23:35:41.084Z,5.63
2023-02-19T23:38:26.571Z,5.65
2023-02-19T23:41:13.832Z,5.95
2023-02-19T23:43:59.203Z,5.43
2023-02-19T23:46:45.470Z,5.60
2023-02-19T23:49:31.080Z,5.60
2023-02-19T23:52:17.781Z,5.70
2023-02-19T23:55:03.303Z,5.57
2023-02-19T23:57:48.670Z,5.40
